createdAt,value
2018-12-21T00:00:08.499Z,96.55
2018-12-21T00:01:08.493Z,96.75
2018-12-21T00:02:08.496Z,97.38
2018-12-21T00:03:08.489Z,96.75
2018-12-21T00:04:08.457Z,97.17
2018-12-21T00:05:08.452Z,97.38
2018-12-21T00:06:08.431Z,97.17
2018-12-21T00:07:08.440Z,97.78
2018-12-21T00:08:08.418Z,97.78
2018-12-21T00:09:08.389Z,97.78
2018-12-21T00:10:08.396Z,97.17
2018-12-21T00:11:08.390Z,97.58
2018-12-21T00:12:08.387Z,97.89
2018-12-21T00:13:08.360Z,97.68
2018-12-21T00:14:08.339Z,97.68
2018-12-21T00:15:08.331Z,98.03
2018-12-21T00:16:08.322Z,97.99
2018-12-21T00:17:08.335Z,98.10
2018-12-21T00:18:08.303Z,98.71
2018-12-21T00:19:08.293Z,97.89
2018-12-21T00:20:08.275Z,98.10
2018-12-21T00:21:08.276Z,98.14
2018-12-21T00:22:08.290Z,97.89
2018-12-21T00:23:08.248Z,98.14
2018-12-21T00:24:08.254Z,98.55
2018-12-21T00:25:08.235Z,98.14
2018-12-21T00:26:08.218Z,98.66
2018-12-21T00:27:08.203Z,98.50
2018-12-21T00:28:08.211Z,99.02
2018-12-21T00:29:08.176Z,99.17
2018-12-21T00:30:08.172Z,99.27
2018-12-21T00:31:08.168Z,99.27
2018-12-21T00:32:08.148Z,99.07
2018-12-21T00:33:08.148Z,99.07
2018-12-21T00:34:08.135Z,98.66
2018-12-21T00:35:08.118Z,99.27
2018-12-21T00:36:08.102Z,99.27
2018-12-21T00:37:08.099Z,99.07
2018-12-21T00:38:08.093Z,99.48
2018-12-21T00:39:08.082Z,99.48
2018-12-21T00:40:08.070Z,99.48
2018-12-21T00:41:08.053Z,99.79
2018-12-21T00:42:08.045Z,99.79
2018-12-21T00:43:08.026Z,99.99
2018-12-21T00:44:08.017Z,99.99
2018-12-21T00:45:08.009Z,99.90
2018-12-21T00:46:07.998Z,99.99
2018-12-21T00:47:07.988Z,99.90
2018-12-21T00:48:07.983Z,99.69
2018-12-21T00:49:08.005Z,99.79
2018-12-21T00:50:07.952Z,99.99
2018-12-21T00:51:07.945Z,99.99
2018-12-21T00:52:07.946Z,99.99
2018-12-21T00:54:17.135Z,99.99
2018-12-21T00:55:18.103Z,99.99
2018-12-21T00:56:18.084Z,99.99
2018-12-21T00:57:18.085Z,99.99
2018-12-21T00:58:18.077Z,99.99
2018-12-21T00:59:18.108Z,99.90
2018-12-21T01:00:18.044Z,99.99
2018-12-21T01:01:18.039Z,99.99
2018-12-21T01:02:18.026Z,99.69
2018-12-21T01:03:18.009Z,99.79
2018-12-21T01:04:18.010Z,99.99
2018-12-21T01:05:17.998Z,99.90
2018-12-21T01:06:17.978Z,99.99
2018-12-21T01:07:17.982Z,99.99
2018-12-21T01:08:17.972Z,99.99
2018-12-21T01:09:17.957Z,99.99
2018-12-21T01:10:17.962Z,99.79
2018-12-21T01:11:17.922Z,99.90
2018-12-21T01:12:17.911Z,99.48
2018-12-21T01:13:17.911Z,99.48
2018-12-21T01:14:17.891Z,99.69
2018-12-21T01:15:17.915Z,99.90
2018-12-21T01:16:17.880Z,99.27
2018-12-21T01:17:17.869Z,99.27
2018-12-21T01:18:17.851Z,98.66
2018-12-21T01:19:17.836Z,98.97
2018-12-21T01:20:17.855Z,99.27
2018-12-21T01:21:17.836Z,99.07
2018-12-21T01:22:17.817Z,99.07
2018-12-21T01:23:17.788Z,99.38
2018-12-21T01:24:17.785Z,99.07
2018-12-21T01:25:17.803Z,98.55
2018-12-21T01:26:17.768Z,98.55
2018-12-21T01:27:17.783Z,98.45
2018-12-21T01:28:17.738Z,98.55
2018-12-21T01:29:17.741Z,98.14
2018-12-21T01:30:17.745Z,98.29
2018-12-21T01:31:17.725Z,98.24
2018-12-21T01:32:17.696Z,98.55
2018-12-21T01:33:17.691Z,98.35
2018-12-21T01:34:17.673Z,98.60
2018-12-21T01:35:17.681Z,98.08
2018-12-21T01:36:17.652Z,98.03
2018-12-21T01:37:17.636Z,98.14
2018-12-21T01:38:17.629Z,98.60
2018-12-21T01:39:17.623Z,97.83
2018-12-21T01:40:17.627Z,98.14
2018-12-21T01:41:17.614Z,98.19
2018-12-21T01:42:17.642Z,97.88
2018-12-21T01:43:17.569Z,98.66
2018-12-21T01:44:17.571Z,98.76
2018-12-21T01:45:17.576Z,98.39
2018-12-21T01:46:17.561Z,98.24
2018-12-21T01:47:17.536Z,97.52
2018-12-21T01:48:17.530Z,97.83
2018-12-21T01:49:17.504Z,98.24
2018-12-21T01:50:17.517Z,97.83
2018-12-21T01:51:17.513Z,97.83
2018-12-21T01:52:17.482Z,98.14
2018-12-21T01:53:17.464Z,97.83
2018-12-21T01:54:17.457Z,97.83
2018-12-21T01:55:17.465Z,97.88
2018-12-21T01:56:17.443Z,97.56
2018-12-21T01:57:17.419Z,97.31
2018-12-21T01:58:17.418Z,97.42
2018-12-21T01:59:17.398Z,97.42
2018-12-21T02:00:17.413Z,97.67
2018-12-21T02:01:17.389Z,97.47
2018-12-21T02:02:17.367Z,97.63
2018-12-21T02:03:17.353Z,97.52
2018-12-21T02:04:17.349Z,97.47
2018-12-21T02:05:17.345Z,97.31
2018-12-21T02:06:17.353Z,97.63
2018-12-21T02:07:17.312Z,97.83
2018-12-21T02:08:17.299Z,97.83
2018-12-21T02:09:17.304Z,97.42
2018-12-21T02:10:17.289Z,97.73
2018-12-21T02:11:17.295Z,97.77
2018-12-21T02:12:17.267Z,97.94
2018-12-21T02:13:17.265Z,97.94
2018-12-21T02:14:17.243Z,97.21
2018-12-21T02:15:17.218Z,97.11
2018-12-21T02:16:17.232Z,97.31
2018-12-21T02:17:17.211Z,97.31
2018-12-21T02:18:17.189Z,96.91
2018-12-21T02:19:17.184Z,97.01
2018-12-21T02:20:17.179Z,97.21
2018-12-21T02:21:17.285Z,97.21
2018-12-21T02:22:17.154Z,96.39
2018-12-21T02:23:17.143Z,96.39
2018-12-21T02:24:17.131Z,96.59
2018-12-21T02:25:17.123Z,96.66
2018-12-21T02:26:17.134Z,96.03
2018-12-21T02:27:17.092Z,96.24
2018-12-21T02:28:17.080Z,95.62
2018-12-21T02:29:17.069Z,95.83
2018-12-21T02:30:17.073Z,95.62
2018-12-21T02:31:17.083Z,95.87
2018-12-21T02:32:17.040Z,95.93
2018-12-21T02:33:17.037Z,95.42
2018-12-21T02:34:17.021Z,95.46
2018-12-21T02:35:17.015Z,95.00
2018-12-21T02:36:17.002Z,95.05
2018-12-21T02:37:16.987Z,95.36
2018-12-21T02:38:16.974Z,95.21
2018-12-21T02:39:16.969Z,95.25
2018-12-21T02:40:16.952Z,95.00
2018-12-21T02:41:16.948Z,94.84
2018-12-21T02:42:16.948Z,94.90
2018-12-21T02:43:16.917Z,95.00
2018-12-21T02:44:16.920Z,94.80
2018-12-21T02:45:16.898Z,94.95
2018-12-21T02:46:16.885Z,94.59
2018-12-21T02:47:17.013Z,94.59
2018-12-21T02:48:16.866Z,94.59
2018-12-21T02:49:16.864Z,94.49
2018-12-21T02:50:16.837Z,94.28
2018-12-21T02:51:16.836Z,93.98
2018-12-21T02:52:16.849Z,93.77
2018-12-21T02:53:16.809Z,93.77
2018-12-21T02:55:25.989Z,94.28
2018-12-21T02:56:26.970Z,94.28
2018-12-21T02:57:26.991Z,94.28
2018-12-21T02:58:26.946Z,93.87
2018-12-21T02:59:26.951Z,93.77
2018-12-21T03:00:26.940Z,93.56
2018-12-21T03:01:26.924Z,93.15
2018-12-21T03:02:26.933Z,92.94
2018-12-21T03:03:26.922Z,93.05
2018-12-21T03:04:26.890Z,93.56
2018-12-21T03:05:26.879Z,93.66
2018-12-21T03:06:26.870Z,93.25
2018-12-21T03:07:26.872Z,92.63
2018-12-21T03:08:26.858Z,92.12
2018-12-21T03:09:26.834Z,92.38
2018-12-21T03:10:26.831Z,92.59
2018-12-21T03:11:26.817Z,91.66
2018-12-21T03:12:26.829Z,91.97
2018-12-21T03:13:26.797Z,91.66
2018-12-21T03:14:26.782Z,92.49
2018-12-21T03:15:26.774Z,92.29
2018-12-21T03:16:26.752Z,92.22
2018-12-21T03:17:26.770Z,92.63
2018-12-21T03:18:26.734Z,91.71
2018-12-21T03:19:26.780Z,91.66
2018-12-21T03:20:26.712Z,91.97
2018-12-21T03:21:26.703Z,91.97
2018-12-21T03:22:26.718Z,91.25
2018-12-21T03:23:26.676Z,92.29
2018-12-21T03:24:26.678Z,91.97
2018-12-21T03:25:26.663Z,91.66
2018-12-21T03:26:26.666Z,92.29
2018-12-21T03:27:26.709Z,91.46
2018-12-21T03:28:26.622Z,92.29
2018-12-21T03:29:26.612Z,91.97
2018-12-21T03:30:26.601Z,92.08
2018-12-21T03:31:26.596Z,92.18
2018-12-21T03:32:26.600Z,92.12
2018-12-21T03:33:26.580Z,91.36
2018-12-21T03:34:26.571Z,90.84
2018-12-21T03:35:26.559Z,91.46
2018-12-21T03:36:26.540Z,90.94
2018-12-21T03:37:26.580Z,91.36
2018-12-21T03:38:26.531Z,92.38
2018-12-21T03:39:26.510Z,92.22
2018-12-21T03:40:26.494Z,91.71
2018-12-21T03:41:26.475Z,91.56
2018-12-21T03:42:26.503Z,91.05
2018-12-21T03:43:26.462Z,91.25
2018-12-21T03:44:26.449Z,91.77
2018-12-21T03:45:26.436Z,91.46
2018-12-21T03:46:26.428Z,91.15
2018-12-21T03:47:26.445Z,90.84
2018-12-21T03:48:26.407Z,91.25
2018-12-21T03:49:26.400Z,91.46
2018-12-21T03:50:26.387Z,91.15
2018-12-21T03:51:26.376Z,91.36
2018-12-21T03:52:26.393Z,91.15
2018-12-21T03:53:26.354Z,91.66
2018-12-21T03:54:26.342Z,91.46
2018-12-21T03:55:26.328Z,91.56
2018-12-21T03:56:26.308Z,91.25
2018-12-21T03:57:26.331Z,91.56
2018-12-21T03:58:26.297Z,90.69
2018-12-21T03:59:26.277Z,90.64
2018-12-21T04:00:26.277Z,90.53
2018-12-21T04:01:26.268Z,90.53
2018-12-21T04:02:26.285Z,90.22
2018-12-21T04:03:26.241Z,90.08
2018-12-21T04:04:26.246Z,90.33
2018-12-21T04:05:26.218Z,90.12
2018-12-21T04:06:26.198Z,90.33
2018-12-21T04:07:26.224Z,90.64
2018-12-21T04:08:26.191Z,90.01
2018-12-21T04:09:26.180Z,90.12
2018-12-21T04:10:26.154Z,90.33
2018-12-21T04:11:26.152Z,90.08
2018-12-21T04:12:26.180Z,90.18
2018-12-21T04:13:26.135Z,90.12
2018-12-21T04:14:26.113Z,90.43
2018-12-21T04:15:26.111Z,91.05
2018-12-21T04:16:26.097Z,89.81
2018-12-21T04:17:26.112Z,90.43
2018-12-21T04:18:26.076Z,90.43
2018-12-21T04:19:26.060Z,90.22
2018-12-21T04:20:26.055Z,90.33
2018-12-21T04:21:26.041Z,90.43
2018-12-21T04:22:34.074Z,90.08
2018-12-21T04:23:26.021Z,90.12
2018-12-21T04:24:26.007Z,90.12
2018-12-21T04:25:26.007Z,89.25
2018-12-21T04:26:25.986Z,89.36
2018-12-21T04:27:25.976Z,89.05
2018-12-21T04:28:26.005Z,89.05
2018-12-21T04:29:25.967Z,89.25
2018-12-21T04:30:25.950Z,89.15
2018-12-21T04:31:25.935Z,89.25
2018-12-21T04:32:25.923Z,89.36
2018-12-21T04:33:25.939Z,89.67
2018-12-21T04:34:25.901Z,88.74
2018-12-21T04:35:25.881Z,89.15
2018-12-21T04:36:25.890Z,89.29
2018-12-21T04:37:25.865Z,89.50
2018-12-21T04:38:25.878Z,89.09
2018-12-21T04:39:25.842Z,90.39
2018-12-21T04:40:25.840Z,89.05
2018-12-21T04:41:25.826Z,89.42
2018-12-21T04:42:25.818Z,89.46
2018-12-21T04:43:25.828Z,89.15
2018-12-21T04:44:25.792Z,88.33
2018-12-21T04:45:25.789Z,89.25
2018-12-21T04:46:25.762Z,88.84
2018-12-21T04:47:25.751Z,89.77
2018-12-21T04:48:25.769Z,88.64
2018-12-21T04:49:25.742Z,88.53
2018-12-21T04:50:25.722Z,88.53
2018-12-21T04:51:25.714Z,88.53
2018-12-21T04:52:25.702Z,88.23
2018-12-21T04:53:25.712Z,87.67
2018-12-21T04:54:25.706Z,88.12
2018-12-21T04:56:34.854Z,87.98
2018-12-21T04:57:35.838Z,88.08
2018-12-21T04:58:35.924Z,88.29
2018-12-21T04:59:35.822Z,88.29
2018-12-21T05:00:35.805Z,88.39
2018-12-21T05:01:36.597Z,88.08
2018-12-21T05:02:35.798Z,87.36
2018-12-21T05:03:35.800Z,87.67
2018-12-21T05:04:35.778Z,87.46
2018-12-21T05:05:35.764Z,87.46
2018-12-21T05:06:35.742Z,87.57
2018-12-21T05:07:35.734Z,87.57
2018-12-21T05:08:35.747Z,87.57
2018-12-21T05:09:35.707Z,87.15
2018-12-21T05:10:35.696Z,87.46
2018-12-21T05:11:35.688Z,87.46
2018-12-21T05:12:35.682Z,87.67
2018-12-21T05:13:35.686Z,87.67
2018-12-21T05:14:35.661Z,86.95
2018-12-21T05:15:35.642Z,87.26
2018-12-21T05:16:35.631Z,87.26
2018-12-21T05:17:35.621Z,87.32
2018-12-21T05:18:35.634Z,86.95
2018-12-21T05:19:35.597Z,87.42
2018-12-21T05:20:35.592Z,87.01
2018-12-21T05:21:35.574Z,87.46
2018-12-21T05:22:35.572Z,87.67
2018-12-21T05:23:35.574Z,87.42
2018-12-21T05:24:35.543Z,86.95
2018-12-21T05:25:35.532Z,87.01
2018-12-21T05:26:35.520Z,87.22
2018-12-21T05:27:38.127Z,86.91
2018-12-21T05:28:35.516Z,87.22
2018-12-21T05:29:35.493Z,87.01
2018-12-21T05:30:35.476Z,87.01
2018-12-21T05:31:35.471Z,87.36
2018-12-21T05:32:35.460Z,87.22
2018-12-21T05:33:35.460Z,87.22
2018-12-21T05:34:35.440Z,87.63
2018-12-21T05:35:35.430Z,86.80
2018-12-21T05:36:35.419Z,87.42
2018-12-21T05:37:35.398Z,87.32
2018-12-21T05:38:35.421Z,87.32
2018-12-21T05:39:35.381Z,87.57
2018-12-21T05:40:35.364Z,87.32
2018-12-21T05:41:35.357Z,87.22
2018-12-21T05:42:35.357Z,87.22
2018-12-21T05:43:35.360Z,87.32
2018-12-21T05:44:35.347Z,87.32
2018-12-21T05:45:35.313Z,87.01
2018-12-21T05:46:35.314Z,87.42
2018-12-21T05:47:35.292Z,87.42
2018-12-21T05:48:35.311Z,86.50
2018-12-21T05:49:35.286Z,87.07
2018-12-21T05:50:35.271Z,86.56
2018-12-21T05:51:35.254Z,87.18
2018-12-21T05:52:35.237Z,86.97
2018-12-21T05:53:35.246Z,87.18
2018-12-21T05:54:35.220Z,87.28
2018-12-21T05:55:35.206Z,86.97
2018-12-21T05:56:35.197Z,86.56
2018-12-21T05:57:36.101Z,86.66
2018-12-21T05:58:35.202Z,86.77
2018-12-21T05:59:35.169Z,86.46
2018-12-21T06:00:35.160Z,86.87
2018-12-21T06:01:35.155Z,86.97
2018-12-21T06:02:35.137Z,87.28
2018-12-21T06:03:35.133Z,86.87
2018-12-21T06:04:35.111Z,86.87
2018-12-21T06:05:35.095Z,87.07
2018-12-21T06:06:35.092Z,86.56
2018-12-21T06:07:35.082Z,86.97
2018-12-21T06:08:35.090Z,86.77
2018-12-21T06:09:35.047Z,87.18
2018-12-21T06:10:35.038Z,86.97
2018-12-21T06:11:35.022Z,86.97
2018-12-21T06:12:35.031Z,86.97
2018-12-21T06:13:35.006Z,87.18
2018-12-21T06:14:34.991Z,87.18
2018-12-21T06:15:34.982Z,86.66
2018-12-21T06:16:34.980Z,87.18
2018-12-21T06:17:34.969Z,87.07
2018-12-21T06:18:34.945Z,87.49
2018-12-21T06:19:34.976Z,87.28
2018-12-21T06:20:34.932Z,88.00
2018-12-21T06:21:34.927Z,88.20
2018-12-21T06:22:34.914Z,88.72
2018-12-21T06:23:34.902Z,89.34
2018-12-21T06:24:34.904Z,89.23
2018-12-21T06:25:34.872Z,89.23
2018-12-21T06:26:34.864Z,90.09
2018-12-21T06:27:34.852Z,90.30
2018-12-21T06:28:34.861Z,89.95
2018-12-21T06:29:34.855Z,90.72
2018-12-21T06:30:34.836Z,90.92
2018-12-21T06:31:34.812Z,91.64
2018-12-21T06:32:34.809Z,90.81
2018-12-21T06:33:34.781Z,91.33
2018-12-21T06:34:34.795Z,91.89
2018-12-21T06:35:34.770Z,91.53
2018-12-21T06:36:34.763Z,91.64
2018-12-21T06:37:34.747Z,91.78
2018-12-21T06:38:34.740Z,92.05
2018-12-21T06:39:34.720Z,92.10
2018-12-21T06:40:34.742Z,91.95
2018-12-21T06:41:34.703Z,92.16
2018-12-21T06:42:34.689Z,91.23
2018-12-21T06:43:34.686Z,90.92
2018-12-21T06:44:34.677Z,90.75
2018-12-21T06:45:34.675Z,90.92
2018-12-21T06:46:34.653Z,90.92
2018-12-21T06:47:34.753Z,90.41
2018-12-21T06:48:34.626Z,89.64
2018-12-21T06:49:34.619Z,89.85
2018-12-21T06:50:34.623Z,90.06
2018-12-21T06:51:34.609Z,89.95
2018-12-21T06:52:34.574Z,89.34
2018-12-21T06:53:35.102Z,88.51
2018-12-21T06:54:34.569Z,89.03
2018-12-21T06:55:34.567Z,89.19
2018-12-21T06:57:43.745Z,88.78
2018-12-21T06:58:44.722Z,89.50
2018-12-21T06:59:44.721Z,88.78
2018-12-21T07:00:44.736Z,88.98
2018-12-21T07:01:44.698Z,88.57
2018-12-21T07:02:44.682Z,89.19
2018-12-21T07:03:44.677Z,89.60
2018-12-21T07:04:44.661Z,89.09
2018-12-21T07:05:44.670Z,89.70
2018-12-21T07:06:44.651Z,90.22
2018-12-21T07:07:44.629Z,89.91
2018-12-21T07:08:44.619Z,90.08
2018-12-21T07:09:44.612Z,90.22
2018-12-21T07:10:44.619Z,90.83
2018-12-21T07:11:44.592Z,91.35
2018-12-21T07:12:46.782Z,91.04
2018-12-21T07:13:44.579Z,91.25
2018-12-21T07:14:44.568Z,91.14
2018-12-21T07:15:44.563Z,90.73
2018-12-21T07:16:44.542Z,91.14
2018-12-21T07:17:44.524Z,91.04
2018-12-21T07:18:44.518Z,90.83
2018-12-21T07:19:44.501Z,91.45
2018-12-21T07:20:44.518Z,90.83
2018-12-21T07:21:44.485Z,91.14
2018-12-21T07:22:44.486Z,91.14
2018-12-21T07:23:44.460Z,90.69
2018-12-21T07:24:44.452Z,91.04
2018-12-21T07:25:44.452Z,91.14
2018-12-21T07:26:44.422Z,91.97
2018-12-21T07:27:44.416Z,91.76
2018-12-21T07:28:44.416Z,92.27
2018-12-21T07:29:44.394Z,91.86
2018-12-21T07:30:44.405Z,92.27
2018-12-21T07:31:44.365Z,92.89
2018-12-21T07:32:44.363Z,93.55
2018-12-21T07:33:44.347Z,93.35
2018-12-21T07:34:44.346Z,93.44
2018-12-21T07:35:44.343Z,93.65
2018-12-21T07:36:44.316Z,93.96
2018-12-21T07:37:44.302Z,93.76
2018-12-21T07:38:44.350Z,94.37
2018-12-21T07:39:44.285Z,94.48
2018-12-21T07:40:44.304Z,94.27
2018-12-21T07:41:44.275Z,94.48
2018-12-21T07:42:44.270Z,94.48
2018-12-21T07:43:44.253Z,95.09
2018-12-21T07:44:44.226Z,95.20
2018-12-21T07:45:44.260Z,95.40
2018-12-21T07:46:44.220Z,95.50
2018-12-21T07:47:44.210Z,96.06
2018-12-21T07:48:44.186Z,96.47
2018-12-21T07:49:44.193Z,96.06
2018-12-21T07:50:44.197Z,96.06
2018-12-21T07:51:44.170Z,96.06
2018-12-21T07:52:44.159Z,95.96
2018-12-21T07:53:44.151Z,96.06
2018-12-21T07:54:44.138Z,96.17
2018-12-21T07:55:44.130Z,96.37
2018-12-21T07:56:44.107Z,97.19
2018-12-21T07:57:44.093Z,97.19
2018-12-21T07:58:44.089Z,96.89
2018-12-21T07:59:44.074Z,96.89
2018-12-21T08:00:44.084Z,97.30
2018-12-21T08:01:44.051Z,96.99
2018-12-21T08:02:44.045Z,96.99
2018-12-21T08:03:44.036Z,97.40
2018-12-21T08:04:44.022Z,97.19
2018-12-21T08:05:44.006Z,97.50
2018-12-21T08:06:44.011Z,97.55
2018-12-21T08:07:43.977Z,97.61
2018-12-21T08:08:43.982Z,97.50
2018-12-21T08:09:43.965Z,97.50
2018-12-21T08:10:43.946Z,97.61
2018-12-21T08:11:43.962Z,97.50
2018-12-21T08:12:43.930Z,97.50
2018-12-21T08:13:43.921Z,97.40
2018-12-21T08:14:43.914Z,97.40
2018-12-21T08:15:43.895Z,97.40
2018-12-21T08:16:43.902Z,97.30
2018-12-21T08:17:43.880Z,97.19
2018-12-21T08:18:43.865Z,97.30
2018-12-21T08:19:43.847Z,97.30
2018-12-21T08:20:43.838Z,97.30
2018-12-21T08:21:43.846Z,97.24
2018-12-21T08:22:43.829Z,97.50
2018-12-21T08:23:44.418Z,96.99
2018-12-21T08:24:43.795Z,97.03
2018-12-21T08:25:43.798Z,97.24
2018-12-21T08:26:43.800Z,97.40
2018-12-21T08:27:43.780Z,97.65
2018-12-21T08:28:43.759Z,97.71
2018-12-21T08:29:43.747Z,97.61
2018-12-21T08:30:43.731Z,97.40
2018-12-21T08:31:43.758Z,97.61
2018-12-21T08:32:43.716Z,97.50
2018-12-21T08:33:44.494Z,97.75
2018-12-21T08:34:43.694Z,97.71
2018-12-21T08:35:43.686Z,97.30
2018-12-21T08:36:43.701Z,97.40
2018-12-21T08:37:43.666Z,97.30
2018-12-21T08:38:43.648Z,97.40
2018-12-21T08:39:43.649Z,97.55
2018-12-21T08:40:44.502Z,97.40
2018-12-21T08:41:45.052Z,97.30
2018-12-21T08:42:43.606Z,97.19
2018-12-21T08:43:43.609Z,97.19
2018-12-21T08:44:43.595Z,97.09
2018-12-21T08:45:43.584Z,97.65
2018-12-21T08:46:43.587Z,97.65
2018-12-21T08:47:43.573Z,98.02
2018-12-21T08:48:43.552Z,97.96
2018-12-21T08:49:43.533Z,98.02
2018-12-21T08:50:43.526Z,98.06
2018-12-21T08:51:43.539Z,97.81
2018-12-21T08:52:43.506Z,97.96
2018-12-21T08:53:43.494Z,98.53
2018-12-21T08:54:43.506Z,98.37
2018-12-21T08:55:43.478Z,98.16
2018-12-21T08:56:43.484Z,98.47
2018-12-21T08:58:52.656Z,98.47
2018-12-21T08:59:53.617Z,97.96
2018-12-21T09:00:53.606Z,97.86
2018-12-21T09:01:53.625Z,98.02
2018-12-21T09:02:53.593Z,98.47
2018-12-21T09:03:53.582Z,98.37
2018-12-21T09:04:53.573Z,98.27
2018-12-21T09:05:53.565Z,98.88
2018-12-21T09:06:53.581Z,99.09
2018-12-21T09:07:53.543Z,98.84
2018-12-21T09:08:53.529Z,99.09
2018-12-21T09:09:53.524Z,99.09
2018-12-21T09:10:53.513Z,98.88
2018-12-21T09:11:53.518Z,98.84
2018-12-21T09:12:53.483Z,98.88
2018-12-21T09:13:53.469Z,99.05
2018-12-21T09:14:53.468Z,98.74
2018-12-21T09:15:53.468Z,98.79
2018-12-21T09:16:53.455Z,98.74
2018-12-21T09:17:53.433Z,98.99
2018-12-21T09:18:53.429Z,99.09
2018-12-21T09:19:53.416Z,98.88
2018-12-21T09:20:53.397Z,99.19
2018-12-21T09:21:53.415Z,99.09
2018-12-21T09:22:53.395Z,99.09
2018-12-21T09:24:00.889Z,99.09
2018-12-21T09:24:53.363Z,99.19
2018-12-21T09:25:53.352Z,98.47
2018-12-21T09:26:53.373Z,98.79
2018-12-21T09:27:53.337Z,98.47
2018-12-21T09:28:53.320Z,99.05
2018-12-21T09:29:53.304Z,98.84
2018-12-21T09:30:53.293Z,98.84
2018-12-21T09:31:53.307Z,98.84
2018-12-21T09:32:53.277Z,99.15
2018-12-21T09:33:53.263Z,98.94
2018-12-21T09:34:53.248Z,99.05
2018-12-21T09:35:53.258Z,98.84
2018-12-21T09:36:53.256Z,98.63
2018-12-21T09:37:53.225Z,99.05
2018-12-21T09:38:53.205Z,98.84
2018-12-21T09:39:53.208Z,98.63
2018-12-21T09:40:53.179Z,98.43
2018-12-21T09:41:53.215Z,98.94
2018-12-21T09:42:53.492Z,98.74
2018-12-21T09:43:53.145Z,98.84
2018-12-21T09:44:53.154Z,99.21
2018-12-21T09:45:53.130Z,98.38
2018-12-21T09:46:53.142Z,97.97
2018-12-21T09:47:53.123Z,98.07
2018-12-21T09:48:53.090Z,98.07
2018-12-21T09:49:53.093Z,98.28
2018-12-21T09:50:53.074Z,98.07
2018-12-21T09:51:53.100Z,98.07
2018-12-21T09:52:53.062Z,98.28
2018-12-21T09:53:53.045Z,98.07
2018-12-21T09:54:53.032Z,97.97
2018-12-21T09:55:53.027Z,97.87
2018-12-21T09:56:53.021Z,97.97
2018-12-21T09:57:53.012Z,98.28
2018-12-21T09:58:52.992Z,98.38
2018-12-21T09:59:52.993Z,99.10
2018-12-21T10:00:52.962Z,99.05
2018-12-21T10:01:52.953Z,98.96
2018-12-21T10:02:52.982Z,98.24
2018-12-21T10:03:52.955Z,98.24
2018-12-21T10:04:52.922Z,98.90
2018-12-21T10:05:52.917Z,98.85
2018-12-21T10:06:52.916Z,98.75
2018-12-21T10:07:52.912Z,98.75
2018-12-21T10:08:52.892Z,98.65
2018-12-21T10:09:52.866Z,99.05
2018-12-21T10:10:52.857Z,98.85
2018-12-21T10:11:52.860Z,98.96
2018-12-21T10:12:53.474Z,99.05
2018-12-21T10:13:52.846Z,98.75
2018-12-21T10:14:52.815Z,99.16
2018-12-21T10:15:52.825Z,99.16
2018-12-21T10:16:52.819Z,99.05
2018-12-21T10:17:52.800Z,99.26
2018-12-21T10:18:52.791Z,99.47
2018-12-21T10:19:52.772Z,99.16
2018-12-21T10:20:52.762Z,99.16
2018-12-21T10:21:52.749Z,99.47
2018-12-21T10:22:52.762Z,99.42
2018-12-21T10:23:52.721Z,99.88
2018-12-21T10:24:54.184Z,99.77
2018-12-21T10:25:52.704Z,99.88
2018-12-21T10:26:52.708Z,99.67
2018-12-21T10:27:52.812Z,99.37
2018-12-21T10:28:52.676Z,99.37
2018-12-21T10:29:52.655Z,99.73
2018-12-21T10:30:52.646Z,99.83
2018-12-21T10:31:52.630Z,99.99
2018-12-21T10:32:52.645Z,99.93
2018-12-21T10:33:52.624Z,99.83
2018-12-21T10:34:52.630Z,99.99
2018-12-21T10:35:52.589Z,99.99
2018-12-21T10:36:52.580Z,99.99
2018-12-21T10:37:52.601Z,99.99
2018-12-21T10:38:52.569Z,99.99
2018-12-21T10:39:52.547Z,99.99
2018-12-21T10:40:52.548Z,99.99
2018-12-21T10:41:52.529Z,99.99
2018-12-21T10:42:52.534Z,99.99
2018-12-21T10:43:52.515Z,99.99
2018-12-21T10:44:52.500Z,99.99
2018-12-21T10:45:52.488Z,99.99
2018-12-21T10:46:52.472Z,99.99
2018-12-21T10:47:52.483Z,99.99
2018-12-21T10:48:52.460Z,99.99
2018-12-21T10:49:52.438Z,99.99
2018-12-21T10:50:52.446Z,99.99
2018-12-21T10:51:52.424Z,99.99
2018-12-21T10:52:52.426Z,99.99
2018-12-21T10:53:52.421Z,99.99
2018-12-21T10:54:52.391Z,99.99
2018-12-21T10:55:52.378Z,99.99
2018-12-21T10:56:52.368Z,99.99
2018-12-21T10:57:52.378Z,99.99
2018-12-21T11:00:01.750Z,99.99
2018-12-21T11:01:02.545Z,99.99
2018-12-21T11:02:02.533Z,99.99
2018-12-21T11:03:02.548Z,99.99
2018-12-21T11:04:02.508Z,99.99
2018-12-21T11:05:02.502Z,99.99
2018-12-21T11:06:02.494Z,99.99
2018-12-21T11:07:02.475Z,99.99
2018-12-21T11:08:02.492Z,99.99
2018-12-21T11:09:02.464Z,99.99
2018-12-21T11:10:02.451Z,99.99
2018-12-21T11:11:02.443Z,99.99
2018-12-21T11:12:02.419Z,99.99
2018-12-21T11:13:02.429Z,99.99
2018-12-21T11:14:02.411Z,99.99
2018-12-21T11:15:02.395Z,99.99
2018-12-21T11:16:02.390Z,99.99
2018-12-21T11:17:02.371Z,99.99
2018-12-21T11:18:02.375Z,99.99
2018-12-21T11:19:02.364Z,99.99
2018-12-21T11:20:02.371Z,99.99
2018-12-21T11:21:02.321Z,99.99
2018-12-21T11:22:02.305Z,99.99
2018-12-21T11:23:02.320Z,99.99
2018-12-21T11:24:02.295Z,99.99
2018-12-21T11:25:02.276Z,99.99
2018-12-21T11:26:02.266Z,99.99
2018-12-21T11:27:02.259Z,99.99
2018-12-21T11:28:02.277Z,99.99
2018-12-21T11:29:02.231Z,99.99
2018-12-21T11:30:02.260Z,99.99
2018-12-21T11:31:02.222Z,99.99
2018-12-21T11:32:02.196Z,99.99
2018-12-21T11:33:02.224Z,99.99
2018-12-21T11:34:02.178Z,99.99
2018-12-21T11:35:02.168Z,99.99
2018-12-21T11:36:02.164Z,99.99
2018-12-21T11:37:02.155Z,99.99
2018-12-21T11:38:02.147Z,99.99
2018-12-21T11:39:02.175Z,99.99
2018-12-21T11:40:02.146Z,99.99
2018-12-21T11:41:02.094Z,99.99
2018-12-21T11:42:02.094Z,99.99
2018-12-21T11:43:02.085Z,99.99
2018-12-21T11:44:02.090Z,99.99
2018-12-21T11:45:02.070Z,99.99
2018-12-21T11:46:02.041Z,99.99
2018-12-21T11:47:02.033Z,99.99
2018-12-21T11:48:02.052Z,99.99
2018-12-21T11:49:02.035Z,99.99
2018-12-21T11:50:02.017Z,99.99
2018-12-21T11:51:02.015Z,99.99
2018-12-21T11:52:01.981Z,99.99
2018-12-21T11:53:01.961Z,99.99
2018-12-21T11:54:01.964Z,99.99
2018-12-21T11:55:01.978Z,99.99
2018-12-21T11:56:01.936Z,99.99
2018-12-21T11:57:01.917Z,99.99
2018-12-21T11:58:01.920Z,99.99
2018-12-21T11:59:01.905Z,99.99
2018-12-21T12:00:01.974Z,99.99
2018-12-21T12:01:01.903Z,99.99
2018-12-21T12:02:01.868Z,99.99
2018-12-21T12:03:01.866Z,99.99
2018-12-21T12:04:01.851Z,99.99
2018-12-21T12:05:03.103Z,99.99
2018-12-21T12:06:01.835Z,99.99
2018-12-21T12:07:01.811Z,99.99
2018-12-21T12:08:01.822Z,99.99
2018-12-21T12:09:06.223Z,99.99
2018-12-21T12:10:01.813Z,99.99
2018-12-21T12:11:01.777Z,99.99
2018-12-21T12:12:01.776Z,99.99
2018-12-21T12:13:01.747Z,99.99
2018-12-21T12:14:01.743Z,99.99
2018-12-21T12:15:01.763Z,99.99
2018-12-21T12:16:01.712Z,99.99
2018-12-21T12:17:01.714Z,99.99
2018-12-21T12:18:01.703Z,99.99
2018-12-21T12:19:01.678Z,99.99
2018-12-21T12:20:01.705Z,99.99
2018-12-21T12:21:01.689Z,99.99
2018-12-21T12:22:01.640Z,99.99
2018-12-21T12:23:01.646Z,99.99
2018-12-21T12:24:01.634Z,99.66
2018-12-21T12:25:01.679Z,99.82
2018-12-21T12:26:01.794Z,99.99
2018-12-21T12:27:01.601Z,99.21
2018-12-21T12:28:01.647Z,99.41
2018-12-21T12:29:01.651Z,99.21
2018-12-21T12:30:02.370Z,99.37
2018-12-21T12:31:01.680Z,99.27
2018-12-21T12:32:01.649Z,99.37
2018-12-21T12:33:01.523Z,99.37
2018-12-21T12:34:01.515Z,98.65
2018-12-21T12:35:01.499Z,99.06
2018-12-21T12:36:01.531Z,98.86
2018-12-21T12:37:01.482Z,98.65
2018-12-21T12:38:02.289Z,98.96
2018-12-21T12:39:01.475Z,98.96
2018-12-21T12:40:01.462Z,99.37
2018-12-21T12:41:06.535Z,99.02
2018-12-21T12:42:03.642Z,99.32
2018-12-21T12:43:01.424Z,99.32
2018-12-21T12:44:01.411Z,99.22
2018-12-21T12:45:01.393Z,98.96
2018-12-21T12:46:01.417Z,99.16
2018-12-21T12:47:01.373Z,99.73
2018-12-21T12:48:01.368Z,99.99
2018-12-21T12:49:01.366Z,99.84
2018-12-21T12:50:01.348Z,99.73
2018-12-21T12:51:01.362Z,99.99
2018-12-21T12:52:01.332Z,99.32
2018-12-21T12:53:01.330Z,99.02
2018-12-21T12:54:01.303Z,99.07
2018-12-21T12:55:03.020Z,99.11
2018-12-21T12:56:01.301Z,98.97
2018-12-21T12:57:01.267Z,98.86
2018-12-21T12:58:01.259Z,99.18
2018-12-21T12:59:01.236Z,99.18